sensor_id;sensor_type;location;lat;lon;timestamp;pressure;altitude;pressure_sealevel;temperature;humidity
30463;BME280;17256;43.618;25.336;2023-04-09T00:02:22;100893.84;;;5.34;100.00
30463;BME280;17256;43.618;25.336;2023-04-09T00:04:48;100924.31;;;5.55;100.00
30463;BME280;17256;43.618;25.336;2023-04-09T00:07:14;100706.13;;;4.19;100.00
30463;BME280;17256;43.618;25.336;2023-04-09T00:09:40;100800.84;;;4.77;100.00
30463;BME280;17256;43.618;25.336;2023-04-09T00:12:06;101081.38;;;6.44;100.00
30463;BME280;17256;43.618;25.336;2023-04-09T00:19:03;101184.81;;;7.07;100.00
30463;BME280;17256;43.618;25.336;2023-04-09T00:31:58;101043.63;;;6.05;100.00
30463;BME280;17256;43.618;25.336;2023-04-09T00:35:35;100949.72;;;5.38;100.00
30463;BME280;17256;43.618;25.336;2023-04-09T00:50:11;101193.19;;;6.79;100.00
30463;BME280;17256;43.618;25.336;2023-04-09T00:52:38;100759.59;;;4.28;100.00
30463;BME280;17256;43.618;25.336;2023-04-09T00:55:05;100900.50;;;5.14;100.00
30463;BME280;17256;43.618;25.336;2023-04-09T00:57:31;100841.34;;;4.98;100.00
30463;BME280;17256;43.618;25.336;2023-04-09T00:59:57;100960.25;;;5.77;100.00
30463;BME280;17256;43.618;25.336;2023-04-09T01:02:23;101061.34;;;6.27;100.00
30463;BME280;17256;43.618;25.336;2023-04-09T01:04:50;100863.59;;;5.19;100.00
30463;BME280;17256;43.618;25.336;2023-04-09T01:44:34;100713.84;;;3.61;100.00
30463;BME280;17256;43.618;25.336;2023-04-09T01:57:58;100895.28;;;4.67;100.00
30463;BME280;17256;43.618;25.336;2023-04-09T02:00:26;100898.69;;;4.69;100.00
30463;BME280;17256;43.618;25.336;2023-04-09T02:03:20;101166.53;;;6.30;100.00
30463;BME280;17256;43.618;25.336;2023-04-09T02:06:39;101167.94;;;6.16;100.00
30463;BME280;17256;43.618;25.336;2023-04-09T02:09:08;100673.34;;;3.22;100.00
30463;BME280;17256;43.618;25.336;2023-04-09T02:11:37;100889.41;;;4.44;100.00
30463;BME280;17256;43.618;25.336;2023-04-09T02:14:06;100976.38;;;4.81;100.00
30463;BME280;17256;43.618;25.336;2023-04-09T02:16:36;100936.38;;;4.64;100.00
30463;BME280;17256;43.618;25.336;2023-04-09T02:19:03;100981.91;;;4.89;100.00
30463;BME280;17256;43.618;25.336;2023-04-09T02:21:29;100978.97;;;5.01;100.00
30463;BME280;17256;43.618;25.336;2023-04-09T02:23:56;100969.00;;;4.91;100.00
30463;BME280;17256;43.618;25.336;2023-04-09T02:26:24;100992.13;;;5.05;100.00
30463;BME280;17256;43.618;25.336;2023-04-09T02:28:51;100891.88;;;4.38;100.00
30463;BME280;17256;43.618;25.336;2023-04-09T02:31:17;100970.41;;;4.95;100.00
30463;BME280;17256;43.618;25.336;2023-04-09T02:33:43;100818.97;;;4.06;100.00
30463;BME280;17256;43.618;25.336;2023-04-09T02:36:11;100909.91;;;4.39;100.00
30463;BME280;17256;43.618;25.336;2023-04-09T02:38:41;100925.94;;;4.42;100.00
30463;BME280;17256;43.618;25.336;2023-04-09T02:41:07;100863.41;;;4.14;100.00
30463;BME280;17256;43.618;25.336;2023-04-09T02:43:34;101018.25;;;4.98;100.00
30463;BME280;17256;43.618;25.336;2023-04-09T02:46:00;100833.06;;;3.91;100.00
30463;BME280;17256;43.618;25.336;2023-04-09T02:54:22;100737.31;;;3.25;100.00
30463;BME280;17256;43.618;25.336;2023-04-09T02:57:24;100815.88;;;3.63;100.00
30463;BME280;17256;43.618;25.336;2023-04-09T03:12:43;101119.44;;;5.39;100.00
30463;BME280;17256;43.618;25.336;2023-04-09T03:19:06;101178.63;;;5.64;100.00
30463;BME280;17256;43.618;25.336;2023-04-09T03:26:09;100928.75;;;3.85;100.00
30463;BME280;17256;43.618;25.336;2023-04-09T03:29:47;101187.59;;;5.56;100.00
30463;BME280;17256;43.618;25.336;2023-04-09T03:45:50;100780.25;;;2.92;100.00
30463;BME280;17256;43.618;25.336;2023-04-09T03:48:29;101223.22;;;5.45;100.00
30463;BME280;17256;43.618;25.336;2023-04-09T03:50:57;100957.63;;;3.86;100.00
30463;BME280;17256;43.618;25.336;2023-04-09T03:57:09;100789.69;;;2.88;100.00
30463;BME280;17256;43.618;25.336;2023-04-09T03:59:38;100863.31;;;3.32;100.00
30463;BME280;17256;43.618;25.336;2023-04-09T04:02:05;101239.03;;;5.32;100.00
30463;BME280;17256;43.618;25.336;2023-04-09T04:04:34;100873.03;;;3.25;100.00
30463;BME280;17256;43.618;25.336;2023-04-09T04:07:03;100823.06;;;3.08;100.00
30463;BME280;17256;43.618;25.336;2023-04-09T04:09:34;101182.75;;;5.23;100.00
30463;BME280;17256;43.618;25.336;2023-04-09T04:12:06;101012.53;;;4.37;100.00
30463;BME280;17256;43.618;25.336;2023-04-09T04:14:50;101009.66;;;4.48;100.00
30463;BME280;17256;43.618;25.336;2023-04-09T04:17:25;100798.19;;;3.22;100.00
30463;BME280;17256;43.618;25.336;2023-04-09T04:19:52;101013.06;;;4.50;100.00
30463;BME280;17256;43.618;25.336;2023-04-09T04:22:19;100936.19;;;4.20;100.00
30463;BME280;17256;43.618;25.336;2023-04-09T04:24:51;100939.34;;;4.25;100.00
30463;BME280;17256;43.618;25.336;2023-04-09T04:27:19;100760.25;;;3.40;100.00
30463;BME280;17256;43.618;25.336;2023-04-09T04:29:46;100779.38;;;3.48;100.00
30463;BME280;17256;43.618;25.336;2023-04-09T04:32:32;100772.25;;;3.47;100.00
30463;BME280;17256;43.618;25.336;2023-04-09T04:35:01;101067.69;;;5.21;100.00
30463;BME280;17256;43.618;25.336;2023-04-09T04:37:29;100681.41;;;3.04;100.00
30463;BME280;17256;43.618;25.336;2023-04-09T04:40:00;101234.81;;;6.20;100.00
30463;BME280;17256;43.618;25.336;2023-04-09T04:42:28;101225.00;;;6.27;100.00
30463;BME280;17256;43.618;25.336;2023-04-09T04:44:59;100918.31;;;4.45;100.00
30463;BME280;17256;43.618;25.336;2023-04-09T04:47:35;100720.34;;;3.23;100.00
30463;BME280;17256;43.618;25.336;2023-04-09T04:50:03;101219.22;;;6.30;100.00
30463;BME280;17256;43.618;25.336;2023-04-09T04:52:35;100975.13;;;4.76;100.00
30463;BME280;17256;43.618;25.336;2023-04-09T04:55:02;101214.47;;;6.14;100.00
30463;BME280;17256;43.618;25.336;2023-04-09T04:57:29;100750.41;;;3.39;100.00
30463;BME280;17256;43.618;25.336;2023-04-09T04:59:55;100944.75;;;4.80;100.00
30463;BME280;17256;43.618;25.336;2023-04-09T05:02:21;100747.97;;;3.73;100.00
30463;BME280;17256;43.618;25.336;2023-04-09T05:05:10;100928.03;;;5.11;100.00
30463;BME280;17256;43.618;25.336;2023-04-09T05:07:43;100732.94;;;4.32;100.00
30463;BME280;17256;43.618;25.336;2023-04-09T05:10:09;100707.84;;;4.20;100.00
30463;BME280;17256;43.618;25.336;2023-04-09T05:12:39;101044.19;;;6.17;100.00
30463;BME280;17256;43.618;25.336;2023-04-09T05:15:07;100891.13;;;5.34;100.00
30463;BME280;17256;43.618;25.336;2023-04-09T05:17:43;101049.75;;;6.59;100.00
30463;BME280;17256;43.618;25.336;2023-04-09T05:53:28;101244.31;;;9.28;100.00
30463;BME280;17256;43.618;25.336;2023-04-09T05:57:03;101234.16;;;9.83;100.00
30463;BME280;17256;43.618;25.336;2023-04-09T06:00:01;101003.88;;;9.21;100.00
30463;BME280;17256;43.618;25.336;2023-04-09T06:09:48;100810.31;;;7.10;100.00
30463;BME280;17256;43.618;25.336;2023-04-09T06:12:56;100740.19;;;6.86;100.00
30463;BME280;17256;43.618;25.336;2023-04-09T06:15:38;101048.94;;;9.11;100.00
30463;BME280;17256;43.618;25.336;2023-04-09T06:18:05;100871.69;;;8.26;100.00
30463;BME280;17256;43.618;25.336;2023-04-09T06:20:32;100977.34;;;8.52;100.00
30463;BME280;17256;43.618;25.336;2023-04-09T06:22:58;101064.59;;;9.33;100.00
30463;BME280;17256;43.618;25.336;2023-04-09T06:25:31;100942.25;;;8.55;100.00
30463;BME280;17256;43.618;25.336;2023-04-09T06:27:57;100968.88;;;9.01;100.00
30463;BME280;17256;43.618;25.336;2023-04-09T06:36:57;100995.78;;;9.51;100.00
30463;BME280;17256;43.618;25.336;2023-04-09T06:39:23;101097.78;;;10.15;100.00
30463;BME280;17256;43.618;25.336;2023-04-09T06:41:48;101095.91;;;9.93;100.00
30463;BME280;17256;43.618;25.336;2023-04-09T06:44:25;100960.97;;;8.75;100.00
30463;BME280;17256;43.618;25.336;2023-04-09T06:46:50;101040.31;;;8.91;100.00
30463;BME280;17256;43.618;25.336;2023-04-09T06:49:16;101050.22;;;8.92;100.00
30463;BME280;17256;43.618;25.336;2023-04-09T06:51:41;101073.22;;;9.53;100.00
30463;BME280;17256;43.618;25.336;2023-04-09T06:54:07;101068.06;;;9.27;100.00
30463;BME280;17256;43.618;25.336;2023-04-09T06:56:33;101061.00;;;9.02;100.00
30463;BME280;17256;43.618;25.336;2023-04-09T06:58:59;100912.13;;;7.92;100.00
30463;BME280;17256;43.618;25.336;2023-04-09T07:01:24;101054.34;;;8.96;100.00
30463;BME280;17256;43.618;25.336;2023-04-09T07:03:51;101057.88;;;9.05;100.00
30463;BME280;17256;43.618;25.336;2023-04-09T07:06:17;100955.88;;;8.63;100.00
30463;BME280;17256;43.618;25.336;2023-04-09T07:08:42;101080.59;;;9.98;100.00
30463;BME280;17256;43.618;25.336;2023-04-09T07:11:08;101055.81;;;9.92;100.00
30463;BME280;17256;43.618;25.336;2023-04-09T07:13:34;100724.34;;;8.69;100.00
30463;BME280;17256;43.618;25.336;2023-04-09T07:15:59;101075.97;;;10.74;100.00
30463;BME280;17256;43.618;25.336;2023-04-09T07:18:25;100979.03;;;10.65;100.00
30463;BME280;17256;43.618;25.336;2023-04-09T07:20:51;101186.91;;;11.76;100.00
30463;BME280;17256;43.618;25.336;2023-04-09T07:23:17;101200.00;;;11.59;100.00
30463;BME280;17256;43.618;25.336;2023-04-09T07:25:42;101055.47;;;11.21;100.00
30463;BME280;17256;43.618;25.336;2023-04-09T07:28:08;101013.66;;;11.10;100.00
30463;BME280;17256;43.618;25.336;2023-04-09T07:30:34;101046.88;;;11.45;100.00
30463;BME280;17256;43.618;25.336;2023-04-09T07:32:59;101042.75;;;11.77;100.00
30463;BME280;17256;43.618;25.336;2023-04-09T07:35:25;101103.78;;;12.02;100.00
30463;BME280;17256;43.618;25.336;2023-04-09T07:37:51;101063.25;;;11.75;100.00
30463;BME280;17256;43.618;25.336;2023-04-09T07:40:16;101020.66;;;11.49;100.00
30463;BME280;17256;43.618;25.336;2023-04-09T07:42:42;101196.38;;;12.95;100.00
30463;BME280;17256;43.618;25.336;2023-04-09T07:45:08;101039.44;;;11.82;100.00
30463;BME280;17256;43.618;25.336;2023-04-09T07:47:33;101015.84;;;11.73;100.00
30463;BME280;17256;43.618;25.336;2023-04-09T07:49:59;101270.25;;;13.55;95.53
30463;BME280;17256;43.618;25.336;2023-04-09T07:52:25;101213.31;;;13.48;91.35
30463;BME280;17256;43.618;25.336;2023-04-09T07:54:50;101113.63;;;12.11;93.64
30463;BME280;17256;43.618;25.336;2023-04-09T07:57:16;101085.47;;;12.37;95.31
30463;BME280;17256;43.618;25.336;2023-04-09T07:59:41;101098.47;;;12.71;84.46
30463;BME280;17256;43.618;25.336;2023-04-09T08:02:12;101141.94;;;13.04;85.95
30463;BME280;17256;43.618;25.336;2023-04-09T08:16:38;101302.03;;;14.27;80.74
30463;BME280;17256;43.618;25.336;2023-04-09T08:24:39;101005.50;;;12.93;73.47
30463;BME280;17256;43.618;25.336;2023-04-09T08:27:04;101132.84;;;13.10;78.48
30463;BME280;17256;43.618;25.336;2023-04-09T08:29:30;101075.06;;;13.36;76.34
30463;BME280;17256;43.618;25.336;2023-04-09T08:31:56;101083.69;;;13.68;74.53
30463;BME280;17256;43.618;25.336;2023-04-09T08:38:37;101295.88;;;15.19;71.83
30463;BME280;17256;43.618;25.336;2023-04-09T08:45:15;101142.81;;;14.00;70.42
30463;BME280;17256;43.618;25.336;2023-04-09T08:52:13;101306.72;;;15.47;67.31
30463;BME280;17256;43.618;25.336;2023-04-09T08:54:45;101111.41;;;14.21;66.58
30463;BME280;17256;43.618;25.336;2023-04-09T08:57:11;101068.69;;;14.03;65.45
30463;BME280;17256;43.618;25.336;2023-04-09T08:59:36;101142.50;;;14.89;64.09
30463;BME280;17256;43.618;25.336;2023-04-09T09:02:11;101253.28;;;15.47;65.06
30463;BME280;17256;43.618;25.336;2023-04-09T09:04:47;101053.16;;;14.62;63.45
30463;BME280;17256;43.618;25.336;2023-04-09T09:07:14;101251.72;;;16.28;62.69
30463;BME280;17256;43.618;25.336;2023-04-09T09:09:53;101111.06;;;15.34;61.46
30463;BME280;17256;43.618;25.336;2023-04-09T09:12:33;101248.09;;;15.83;62.15
30463;BME280;17256;43.618;25.336;2023-04-09T09:15:27;101098.66;;;15.63;61.05
30463;BME280;17256;43.618;25.336;2023-04-09T09:17:58;101130.22;;;15.94;59.15
30463;BME280;17256;43.618;25.336;2023-04-09T09:20:24;101150.44;;;15.43;60.00
30463;BME280;17256;43.618;25.336;2023-04-09T09:22:52;101177.28;;;15.43;61.50
30463;BME280;17256;43.618;25.336;2023-04-09T09:25:18;100948.44;;;14.07;61.18
30463;BME280;17256;43.618;25.336;2023-04-09T09:27:47;101055.06;;;14.74;60.96
30463;BME280;17256;43.618;25.336;2023-04-09T09:30:24;101149.41;;;15.31;60.24
30463;BME280;17256;43.618;25.336;2023-04-09T09:33:04;101092.00;;;15.71;59.37
30463;BME280;17256;43.618;25.336;2023-04-09T09:35:30;101116.84;;;15.84;58.54
30463;BME280;17256;43.618;25.336;2023-04-09T09:38:02;101073.97;;;15.62;56.81
30463;BME280;17256;43.618;25.336;2023-04-09T09:40:28;101063.75;;;15.94;56.60
30463;BME280;17256;43.618;25.336;2023-04-09T09:42:57;101132.28;;;16.68;55.46
30463;BME280;17256;43.618;25.336;2023-04-09T09:45:24;101277.63;;;17.42;56.04
30463;BME280;17256;43.618;25.336;2023-04-09T09:47:51;101084.97;;;16.31;56.99
30463;BME280;17256;43.618;25.336;2023-04-09T09:50:17;101091.91;;;15.39;57.74
30463;BME280;17256;43.618;25.336;2023-04-09T09:52:46;101028.91;;;15.35;58.74
30463;BME280;17256;43.618;25.336;2023-04-09T09:55:15;101057.59;;;15.85;57.90
30463;BME280;17256;43.618;25.336;2023-04-09T09:57:43;101000.38;;;15.34;58.08
30463;BME280;17256;43.618;25.336;2023-04-09T10:00:12;101166.28;;;15.87;59.63
30463;BME280;17256;43.618;25.336;2023-04-09T10:02:54;101087.88;;;15.80;60.37
30463;BME280;17256;43.618;25.336;2023-04-09T10:05:22;101062.56;;;15.77;59.25
30463;BME280;17256;43.618;25.336;2023-04-09T10:07:56;101049.91;;;15.49;59.91
30463;BME280;17256;43.618;25.336;2023-04-09T10:10:23;101005.41;;;15.06;59.17
30463;BME280;17256;43.618;25.336;2023-04-09T10:12:49;101095.66;;;15.65;59.67
30463;BME280;17256;43.618;25.336;2023-04-09T10:15:18;101020.38;;;15.36;58.61
30463;BME280;17256;43.618;25.336;2023-04-09T10:17:44;101066.84;;;15.73;58.75
30463;BME280;17256;43.618;25.336;2023-04-09T10:20:14;101118.25;;;16.31;57.84
30463;BME280;17256;43.618;25.336;2023-04-09T10:22:46;101070.13;;;15.94;56.30
30463;BME280;17256;43.618;25.336;2023-04-09T10:25:13;101101.44;;;16.51;55.35
30463;BME280;17256;43.618;25.336;2023-04-09T10:27:39;101057.47;;;16.37;55.14
30463;BME280;17256;43.618;25.336;2023-04-09T10:30:05;101051.25;;;16.66;54.60
30463;BME280;17256;43.618;25.336;2023-04-09T10:32:35;101246.81;;;18.05;54.88
30463;BME280;17256;43.618;25.336;2023-04-09T10:35:02;101057.03;;;17.01;53.92
30463;BME280;17256;43.618;25.336;2023-04-09T10:37:28;101106.59;;;17.34;53.29
30463;BME280;17256;43.618;25.336;2023-04-09T10:39:54;101053.19;;;17.02;53.27
30463;BME280;17256;43.618;25.336;2023-04-09T10:42:31;100984.97;;;16.08;54.44
30463;BME280;17256;43.618;25.336;2023-04-09T10:47:37;101215.28;;;17.56;54.31
30463;BME280;17256;43.618;25.336;2023-04-09T10:50:24;101231.06;;;18.17;54.99
30463;BME280;17256;43.618;25.336;2023-04-09T10:52:53;101179.72;;;18.01;54.09
30463;BME280;17256;43.618;25.336;2023-04-09T10:55:39;101216.31;;;17.62;54.52
30463;BME280;17256;43.618;25.336;2023-04-09T10:58:09;101039.25;;;16.66;55.42
30463;BME280;17256;43.618;25.336;2023-04-09T11:00:45;101154.84;;;16.97;55.92
30463;BME280;17256;43.618;25.336;2023-04-09T11:03:26;101021.00;;;16.33;55.70
30463;BME280;17256;43.618;25.336;2023-04-09T11:06:04;101144.63;;;17.34;55.13
30463;BME280;17256;43.618;25.336;2023-04-09T11:08:32;101068.66;;;17.10;55.37
30463;BME280;17256;43.618;25.336;2023-04-09T11:10:58;101044.25;;;17.00;54.40
30463;BME280;17256;43.618;25.336;2023-04-09T11:13:26;101031.31;;;17.12;54.04
30463;BME280;17256;43.618;25.336;2023-04-09T11:15:54;101201.13;;;18.31;53.87
30463;BME280;17256;43.618;25.336;2023-04-09T11:18:21;101198.69;;;18.23;53.41
30463;BME280;17256;43.618;25.336;2023-04-09T11:20:47;101007.16;;;16.76;54.13
30463;BME280;17256;43.618;25.336;2023-04-09T11:23:13;101030.97;;;17.02;53.67
30463;BME280;17256;43.618;25.336;2023-04-09T11:25:40;101038.63;;;17.55;52.84
30463;BME280;17256;43.618;25.336;2023-04-09T11:28:06;101144.06;;;18.70;51.20
30463;BME280;17256;43.618;25.336;2023-04-09T11:30:35;100983.25;;;17.90;50.57
30463;BME280;17256;43.618;25.336;2023-04-09T11:33:02;100961.41;;;18.17;49.38
30463;BME280;17256;43.618;25.336;2023-04-09T11:35:29;100988.13;;;18.18;49.52
30463;BME280;17256;43.618;25.336;2023-04-09T11:37:55;101157.75;;;18.95;49.86
30463;BME280;17256;43.618;25.336;2023-04-09T11:40:23;100953.59;;;17.72;49.92
30463;BME280;17256;43.618;25.336;2023-04-09T11:42:53;100960.78;;;18.03;49.85
30463;BME280;17256;43.618;25.336;2023-04-09T11:45:24;100805.81;;;17.29;48.91
30463;BME280;17256;43.618;25.336;2023-04-09T11:47:51;100985.56;;;18.28;47.44
30463;BME280;17256;43.618;25.336;2023-04-09T11:50:18;101164.88;;;19.26;47.75
30463;BME280;17256;43.618;25.336;2023-04-09T11:52:45;101046.75;;;18.52;47.28
30463;BME280;17256;43.618;25.336;2023-04-09T11:55:25;100919.94;;;18.04;46.85
30463;BME280;17256;43.618;25.336;2023-04-09T11:57:57;101008.44;;;18.42;47.52
30463;BME280;17256;43.618;25.336;2023-04-09T12:00:31;100881.41;;;17.42;47.38
30463;BME280;17256;43.618;25.336;2023-04-09T12:03:03;101161.00;;;19.27;47.93
30463;BME280;17256;43.618;25.336;2023-04-09T12:05:32;100836.81;;;17.26;47.70
30463;BME280;17256;43.618;25.336;2023-04-09T12:08:03;100960.25;;;17.71;47.11
30463;BME280;17256;43.618;25.336;2023-04-09T12:10:38;100921.16;;;17.96;48.10
30463;BME280;17256;43.618;25.336;2023-04-09T12:13:08;100910.59;;;17.75;47.37
30463;BME280;17256;43.618;25.336;2023-04-09T12:15:41;101153.00;;;19.65;46.96
30463;BME280;17256;43.618;25.336;2023-04-09T12:18:16;101115.28;;;20.03;46.25
30463;BME280;17256;43.618;25.336;2023-04-09T12:20:43;100817.47;;;18.19;45.52
30463;BME280;17256;43.618;25.336;2023-04-09T12:23:15;100917.38;;;18.61;46.17
30463;BME280;17256;43.618;25.336;2023-04-09T12:25:42;100887.13;;;18.53;45.02
30463;BME280;17256;43.618;25.336;2023-04-09T12:28:11;100753.00;;;17.70;44.63
30463;BME280;17256;43.618;25.336;2023-04-09T12:30:38;101033.31;;;19.19;44.92
30463;BME280;17256;43.618;25.336;2023-04-09T12:33:03;100840.44;;;18.03;43.79
30463;BME280;17256;43.618;25.336;2023-04-09T12:35:29;101020.66;;;18.76;44.26
30463;BME280;17256;43.618;25.336;2023-04-09T12:37:55;100891.19;;;17.98;45.09
30463;BME280;17256;43.618;25.336;2023-04-09T12:40:21;101029.00;;;18.41;45.14
30463;BME280;17256;43.618;25.336;2023-04-09T12:42:47;101041.81;;;18.42;44.57
30463;BME280;17256;43.618;25.336;2023-04-09T12:45:15;101025.16;;;18.65;44.29
30463;BME280;17256;43.618;25.336;2023-04-09T12:47:41;100950.03;;;18.30;44.21
30463;BME280;17256;43.618;25.336;2023-04-09T12:50:08;100972.50;;;18.29;45.75
30463;BME280;17256;43.618;25.336;2023-04-09T12:52:34;101095.50;;;19.36;46.90
30463;BME280;17256;43.618;25.336;2023-04-09T12:55:01;100822.16;;;17.37;46.61
30463;BME280;17256;43.618;25.336;2023-04-09T12:57:27;101051.38;;;19.04;46.42
30463;BME280;17256;43.618;25.336;2023-04-09T12:59:53;100741.09;;;17.05;45.62
30463;BME280;17256;43.618;25.336;2023-04-09T13:02:19;101104.88;;;18.71;45.17
30463;BME280;17256;43.618;25.336;2023-04-09T13:04:48;100906.00;;;17.80;45.54
30463;BME280;17256;43.618;25.336;2023-04-09T13:07:15;100940.47;;;18.03;46.20
30463;BME280;17256;43.618;25.336;2023-04-09T13:09:42;100893.09;;;17.74;45.12
30463;BME280;17256;43.618;25.336;2023-04-09T13:12:39;101101.25;;;18.94;45.54
30463;BME280;17256;43.618;25.336;2023-04-09T13:16:15;101096.16;;;18.91;45.33
30463;BME280;17256;43.618;25.336;2023-04-09T13:18:57;101059.59;;;18.99;44.95
30463;BME280;17256;43.618;25.336;2023-04-09T13:21:23;100893.00;;;18.16;44.88
30463;BME280;17256;43.618;25.336;2023-04-09T13:28:08;101075.03;;;19.30;44.81
30463;BME280;17256;43.618;25.336;2023-04-09T13:30:38;100837.66;;;17.79;43.24
30463;BME280;17256;43.618;25.336;2023-04-09T13:33:04;100682.09;;;16.86;43.82
30463;BME280;17256;43.618;25.336;2023-04-09T13:35:31;101027.56;;;18.85;44.91
30463;BME280;17256;43.618;25.336;2023-04-09T13:37:59;100835.72;;;17.68;45.47
30463;BME280;17256;43.618;25.336;2023-04-09T13:40:25;101069.72;;;19.29;46.34
30463;BME280;17256;43.618;25.336;2023-04-09T13:42:51;100926.09;;;18.64;46.08
30463;BME280;17256;43.618;25.336;2023-04-09T13:45:18;100930.56;;;18.30;46.05
30463;BME280;17256;43.618;25.336;2023-04-09T13:47:47;101059.56;;;19.34;46.86
30463;BME280;17256;43.618;25.336;2023-04-09T13:50:15;100687.28;;;17.06;45.17
30463;BME280;17256;43.618;25.336;2023-04-09T13:52:42;100719.47;;;16.83;45.27
30463;BME280;17256;43.618;25.336;2023-04-09T13:55:08;100922.94;;;17.79;45.88
30463;BME280;17256;43.618;25.336;2023-04-09T13:57:36;100741.75;;;16.77;46.49
30463;BME280;17256;43.618;25.336;2023-04-09T14:00:03;100882.44;;;17.30;46.66
30463;BME280;17256;43.618;25.336;2023-04-09T14:02:50;100870.97;;;17.14;46.59
30463;BME280;17256;43.618;25.336;2023-04-09T14:05:15;100913.91;;;17.12;47.64
30463;BME280;17256;43.618;25.336;2023-04-09T14:07:41;100847.31;;;16.45;48.83
30463;BME280;17256;43.618;25.336;2023-04-09T14:10:07;100876.34;;;16.79;48.84
30463;BME280;17256;43.618;25.336;2023-04-09T14:12:34;100940.13;;;16.98;48.64
30463;BME280;17256;43.618;25.336;2023-04-09T14:14:59;100743.38;;;15.88;49.29
30463;BME280;17256;43.618;25.336;2023-04-09T14:17:25;101013.28;;;17.33;49.39
30463;BME280;17256;43.618;25.336;2023-04-09T14:19:51;100979.00;;;17.28;50.28
30463;BME280;17256;43.618;25.336;2023-04-09T14:22:16;100886.91;;;16.89;49.07
30463;BME280;17256;43.618;25.336;2023-04-09T14:24:42;100929.03;;;17.28;49.38
30463;BME280;17256;43.618;25.336;2023-04-09T14:27:08;100918.75;;;17.16;50.06
30463;BME280;17256;43.618;25.336;2023-04-09T14:29:34;100863.50;;;16.67;50.38
30463;BME280;17256;43.618;25.336;2023-04-09T14:32:03;100845.03;;;16.42;49.47
30463;BME280;17256;43.618;25.336;2023-04-09T14:34:29;100891.41;;;17.02;50.18
30463;BME280;17256;43.618;25.336;2023-04-09T14:36:58;100836.06;;;16.58;49.33
30463;BME280;17256;43.618;25.336;2023-04-09T14:39:24;100858.69;;;16.92;49.00
30463;BME280;17256;43.618;25.336;2023-04-09T14:41:49;100740.94;;;16.28;49.56
30463;BME280;17256;43.618;25.336;2023-04-09T14:44:15;100908.50;;;17.17;49.49
30463;BME280;17256;43.618;25.336;2023-04-09T14:46:42;101008.22;;;17.30;49.89
30463;BME280;17256;43.618;25.336;2023-04-09T14:49:08;100874.66;;;16.42;49.61
30463;BME280;17256;43.618;25.336;2023-04-09T14:51:34;100858.63;;;16.25;50.17
30463;BME280;17256;43.618;25.336;2023-04-09T14:53:59;100862.59;;;16.36;50.46
30463;BME280;17256;43.618;25.336;2023-04-09T14:56:26;100721.63;;;15.23;50.68
30463;BME280;17256;43.618;25.336;2023-04-09T14:58:52;100847.16;;;16.04;50.18
30463;BME280;17256;43.618;25.336;2023-04-09T15:01:18;100895.72;;;16.06;50.50
30463;BME280;17256;43.618;25.336;2023-04-09T15:03:43;100626.66;;;14.86;51.06
30463;BME280;17256;43.618;25.336;2023-04-09T15:06:12;100860.56;;;16.43;50.61
30463;BME280;17256;43.618;25.336;2023-04-09T15:08:38;100957.84;;;16.78;50.33
30463;BME280;17256;43.618;25.336;2023-04-09T15:11:04;100576.31;;;14.28;50.67
30463;BME280;17256;43.618;25.336;2023-04-09T15:13:29;100845.22;;;15.61;51.34
30463;BME280;17256;43.618;25.336;2023-04-09T15:15:55;100840.72;;;15.66;52.73
30463;BME280;17256;43.618;25.336;2023-04-09T15:18:21;101027.97;;;16.67;53.25
30463;BME280;17256;43.618;25.336;2023-04-09T15:20:47;100798.66;;;15.26;52.77
30463;BME280;17256;43.618;25.336;2023-04-09T15:23:13;100757.69;;;15.10;53.13
30463;BME280;17256;43.618;25.336;2023-04-09T15:25:38;100887.84;;;16.03;52.83
30463;BME280;17256;43.618;25.336;2023-04-09T15:28:05;100851.19;;;15.64;53.76
30463;BME280;17256;43.618;25.336;2023-04-09T15:30:31;100942.16;;;16.29;53.74
30463;BME280;17256;43.618;25.336;2023-04-09T15:32:56;100830.34;;;15.55;54.06
30463;BME280;17256;43.618;25.336;2023-04-09T15:35:22;100814.91;;;15.16;54.80
30463;BME280;17256;43.618;25.336;2023-04-09T15:37:54;100924.66;;;15.85;54.70
30463;BME280;17256;43.618;25.336;2023-04-09T15:40:21;100779.72;;;14.98;54.66
30463;BME280;17256;43.618;25.336;2023-04-09T15:42:46;100785.69;;;14.95;53.96
30463;BME280;17256;43.618;25.336;2023-04-09T15:45:15;100842.22;;;15.37;55.06
30463;BME280;17256;43.618;25.336;2023-04-09T15:47:45;100996.16;;;16.45;54.25
30463;BME280;17256;43.618;25.336;2023-04-09T15:50:11;100804.78;;;15.03;54.05
30463;BME280;17256;43.618;25.336;2023-04-09T15:52:37;100839.84;;;15.41;53.41
30463;BME280;17256;43.618;25.336;2023-04-09T15:55:03;100928.41;;;15.97;53.30
30463;BME280;17256;43.618;25.336;2023-04-09T15:57:29;100961.69;;;16.16;53.42
30463;BME280;17256;43.618;25.336;2023-04-09T15:59:54;100906.09;;;15.67;53.36
30463;BME280;17256;43.618;25.336;2023-04-09T16:02:20;100749.88;;;14.37;53.71
30463;BME280;17256;43.618;25.336;2023-04-09T16:04:45;100881.56;;;15.39;53.70
30463;BME280;17256;43.618;25.336;2023-04-09T16:07:13;100858.69;;;15.26;53.98
30463;BME280;17256;43.618;25.336;2023-04-09T16:09:40;100921.91;;;15.54;53.64
30463;BME280;17256;43.618;25.336;2023-04-09T16:12:06;100880.25;;;15.11;54.83
30463;BME280;17256;43.618;25.336;2023-04-09T16:14:31;100721.47;;;14.24;54.10
30463;BME280;17256;43.618;25.336;2023-04-09T16:16:58;100596.16;;;13.35;54.30
30463;BME280;17256;43.618;25.336;2023-04-09T16:19:25;100808.03;;;14.62;53.99